sensor_id;sensor_type;location;lat;lon;timestamp;temperature;humidity
19132;DHT22;9698;51.976;7.570;2023-10-13T00:02:15;17.10;99.90
19132;DHT22;9698;51.976;7.570;2023-10-13T00:04:46;17.10;99.90
19132;DHT22;9698;51.976;7.570;2023-10-13T00:07:14;17.10;99.90
19132;DHT22;9698;51.976;7.570;2023-10-13T00:09:42;17.10;99.90
19132;DHT22;9698;51.976;7.570;2023-10-13T00:12:10;17.10;99.90
19132;DHT22;9698;51.976;7.570;2023-10-13T00:14:40;17.10;99.90
19132;DHT22;9698;51.976;7.570;2023-10-13T00:17:08;17.00;99.90
19132;DHT22;9698;51.976;7.570;2023-10-13T00:19:43;17.10;99.90
19132;DHT22;9698;51.976;7.570;2023-10-13T00:22:14;17.10;99.90
19132;DHT22;9698;51.976;7.570;2023-10-13T00:24:44;17.10;99.90
19132;DHT22;9698;51.976;7.570;2023-10-13T00:27:14;14.10;99.90
19132;DHT22;9698;51.976;7.570;2023-10-13T00:29:57;17.10;99.90
19132;DHT22;9698;51.976;7.570;2023-10-13T00:32:45;17.10;99.90
19132;DHT22;9698;51.976;7.570;2023-10-13T00:35:19;17.10;99.90
19132;DHT22;9698;51.976;7.570;2023-10-13T00:37:52;17.10;99.90
19132;DHT22;9698;51.976;7.570;2023-10-13T00:40:22;17.10;99.90
19132;DHT22;9698;51.976;7.570;2023-10-13T00:43:10;17.10;99.90
19132;DHT22;9698;51.976;7.570;2023-10-13T00:46:02;17.10;99.90
19132;DHT22;9698;51.976;7.570;2023-10-13T00:48:37;17.10;99.90
19132;DHT22;9698;51.976;7.570;2023-10-13T00:51:19;17.10;99.90
19132;DHT22;9698;51.976;7.570;2023-10-13T00:54:01;17.10;99.90
19132;DHT22;9698;51.976;7.570;2023-10-13T00:56:34;17.10;99.90
19132;DHT22;9698;51.976;7.570;2023-10-13T00:59:08;17.10;99.90
19132;DHT22;9698;51.976;7.570;2023-10-13T01:01:37;17.10;99.90
19132;DHT22;9698;51.976;7.570;2023-10-13T01:04:08;17.10;99.90
19132;DHT22;9698;51.976;7.570;2023-10-13T01:06:39;17.10;99.90
19132;DHT22;9698;51.976;7.570;2023-10-13T01:09:08;17.10;99.90
19132;DHT22;9698;51.976;7.570;2023-10-13T01:11:41;17.10;99.90
19132;DHT22;9698;51.976;7.570;2023-10-13T01:14:10;17.10;99.90
19132;DHT22;9698;51.976;7.570;2023-10-13T01:16:39;17.10;99.90
19132;DHT22;9698;51.976;7.570;2023-10-13T01:19:11;17.10;99.90
19132;DHT22;9698;51.976;7.570;2023-10-13T01:21:40;17.10;99.90
19132;DHT22;9698;51.976;7.570;2023-10-13T01:24:09;17.10;99.90
19132;DHT22;9698;51.976;7.570;2023-10-13T01:26:41;17.10;99.90
19132;DHT22;9698;51.976;7.570;2023-10-13T01:29:10;17.10;99.90
19132;DHT22;9698;51.976;7.570;2023-10-13T01:31:43;17.10;99.90
19132;DHT22;9698;51.976;7.570;2023-10-13T01:34:15;17.10;99.90
19132;DHT22;9698;51.976;7.570;2023-10-13T01:36:50;17.10;99.90
19132;DHT22;9698;51.976;7.570;2023-10-13T01:39:19;17.10;99.90
19132;DHT22;9698;51.976;7.570;2023-10-13T01:41:48;17.00;99.90
19132;DHT22;9698;51.976;7.570;2023-10-13T01:44:22;17.10;99.90
19132;DHT22;9698;51.976;7.570;2023-10-13T01:46:50;17.10;99.90
19132;DHT22;9698;51.976;7.570;2023-10-13T01:49:18;17.10;99.90
19132;DHT22;9698;51.976;7.570;2023-10-13T01:51:49;17.10;99.90
19132;DHT22;9698;51.976;7.570;2023-10-13T01:54:17;17.10;99.90
19132;DHT22;9698;51.976;7.570;2023-10-13T01:56:45;17.10;99.90
19132;DHT22;9698;51.976;7.570;2023-10-13T01:59:13;17.10;99.90
19132;DHT22;9698;51.976;7.570;2023-10-13T02:01:41;17.10;99.90
19132;DHT22;9698;51.976;7.570;2023-10-13T02:04:09;17.10;99.90
19132;DHT22;9698;51.976;7.570;2023-10-13T02:06:38;17.10;99.90
19132;DHT22;9698;51.976;7.570;2023-10-13T02:09:07;17.20;99.90
19132;DHT22;9698;51.976;7.570;2023-10-13T02:11:40;17.10;99.90
19132;DHT22;9698;51.976;7.570;2023-10-13T02:14:09;17.10;99.90
19132;DHT22;9698;51.976;7.570;2023-10-13T02:16:38;17.20;99.90
19132;DHT22;9698;51.976;7.570;2023-10-13T02:19:07;17.10;99.90
19132;DHT22;9698;51.976;7.570;2023-10-13T02:21:35;17.10;99.90
19132;DHT22;9698;51.976;7.570;2023-10-13T02:24:07;17.10;99.90
19132;DHT22;9698;51.976;7.570;2023-10-13T02:26:41;17.10;99.90
19132;DHT22;9698;51.976;7.570;2023-10-13T02:29:09;17.20;99.90
19132;DHT22;9698;51.976;7.570;2023-10-13T02:31:42;17.20;99.90
19132;DHT22;9698;51.976;7.570;2023-10-13T02:34:10;17.10;99.90
19132;DHT22;9698;51.976;7.570;2023-10-13T02:36:41;17.10;99.90
19132;DHT22;9698;51.976;7.570;2023-10-13T02:39:16;17.20;99.90
19132;DHT22;9698;51.976;7.570;2023-10-13T02:41:44;17.10;99.90
19132;DHT22;9698;51.976;7.570;2023-10-13T02:44:15;17.20;99.90
19132;DHT22;9698;51.976;7.570;2023-10-13T02:46:47;17.20;99.90
19132;DHT22;9698;51.976;7.570;2023-10-13T02:49:17;17.20;99.90
19132;DHT22;9698;51.976;7.570;2023-10-13T02:51:47;17.10;99.90
19132;DHT22;9698;51.976;7.570;2023-10-13T02:54:14;17.10;99.90
19132;DHT22;9698;51.976;7.570;2023-10-13T02:56:45;17.10;99.90
19132;DHT22;9698;51.976;7.570;2023-10-13T02:59:17;17.10;99.90
19132;DHT22;9698;51.976;7.570;2023-10-13T03:01:47;17.10;99.90
19132;DHT22;9698;51.976;7.570;2023-10-13T03:04:19;17.10;99.90
19132;DHT22;9698;51.976;7.570;2023-10-13T03:06:53;17.10;99.90
19132;DHT22;9698;51.976;7.570;2023-10-13T03:09:20;17.10;99.90
19132;DHT22;9698;51.976;7.570;2023-10-13T03:11:50;17.10;99.90
19132;DHT22;9698;51.976;7.570;2023-10-13T03:14:19;17.10;99.90
19132;DHT22;9698;51.976;7.570;2023-10-13T03:16:59;17.10;99.90
19132;DHT22;9698;51.976;7.570;2023-10-13T03:19:32;17.10;99.90
19132;DHT22;9698;51.976;7.570;2023-10-13T03:22:00;17.10;99.90
19132;DHT22;9698;51.976;7.570;2023-10-13T03:24:36;17.10;99.90
19132;DHT22;9698;51.976;7.570;2023-10-13T03:27:09;17.10;99.90
19132;DHT22;9698;51.976;7.570;2023-10-13T03:29:37;17.10;99.90
19132;DHT22;9698;51.976;7.570;2023-10-13T03:32:10;17.10;99.90
19132;DHT22;9698;51.976;7.570;2023-10-13T03:34:42;17.10;99.90
19132;DHT22;9698;51.976;7.570;2023-10-13T03:37:34;17.10;99.90
19132;DHT22;9698;51.976;7.570;2023-10-13T03:40:07;17.10;99.90
19132;DHT22;9698;51.976;7.570;2023-10-13T03:43:01;17.10;99.90
19132;DHT22;9698;51.976;7.570;2023-10-13T03:45:33;17.10;99.90
19132;DHT22;9698;51.976;7.570;2023-10-13T03:48:07;17.10;99.90
19132;DHT22;9698;51.976;7.570;2023-10-13T03:50:45;17.10;99.90
19132;DHT22;9698;51.976;7.570;2023-10-13T03:53:15;17.10;99.90
19132;DHT22;9698;51.976;7.570;2023-10-13T03:55:43;17.10;99.90
19132;DHT22;9698;51.976;7.570;2023-10-13T03:58:15;17.10;99.90
19132;DHT22;9698;51.976;7.570;2023-10-13T04:00:44;17.10;99.90
19132;DHT22;9698;51.976;7.570;2023-10-13T04:03:12;17.20;99.90
19132;DHT22;9698;51.976;7.570;2023-10-13T04:05:43;17.10;99.90
19132;DHT22;9698;51.976;7.570;2023-10-13T04:08:28;17.20;99.90
19132;DHT22;9698;51.976;7.570;2023-10-13T04:11:54;17.10;99.90
19132;DHT22;9698;51.976;7.570;2023-10-13T04:14:43;17.20;99.90
19132;DHT22;9698;51.976;7.570;2023-10-13T04:17:31;17.10;99.90
19132;DHT22;9698;51.976;7.570;2023-10-13T04:20:09;17.20;99.90
19132;DHT22;9698;51.976;7.570;2023-10-13T04:22:54;17.10;99.90
19132;DHT22;9698;51.976;7.570;2023-10-13T04:25:40;17.20;99.90
19132;DHT22;9698;51.976;7.570;2023-10-13T04:28:32;17.10;99.90
19132;DHT22;9698;51.976;7.570;2023-10-13T04:31:04;17.10;99.90
19132;DHT22;9698;51.976;7.570;2023-10-13T04:33:52;17.20;99.90
19132;DHT22;9698;51.976;7.570;2023-10-13T04:36:23;17.20;99.90
19132;DHT22;9698;51.976;7.570;2023-10-13T04:39:12;17.10;99.90
19132;DHT22;9698;51.976;7.570;2023-10-13T04:41:56;17.10;99.90
19132;DHT22;9698;51.976;7.570;2023-10-13T04:44:40;17.10;99.90
19132;DHT22;9698;51.976;7.570;2023-10-13T04:47:19;17.10;99.90
19132;DHT22;9698;51.976;7.570;2023-10-13T04:49:49;17.10;99.90
19132;DHT22;9698;51.976;7.570;2023-10-13T04:52:20;17.10;99.90
19132;DHT22;9698;51.976;7.570;2023-10-13T04:55:07;17.10;99.90
19132;DHT22;9698;51.976;7.570;2023-10-13T04:57:51;17.10;99.90
19132;DHT22;9698;51.976;7.570;2023-10-13T05:00:27;17.10;99.90
19132;DHT22;9698;51.976;7.570;2023-10-13T05:03:23;17.10;99.90
19132;DHT22;9698;51.976;7.570;2023-10-13T05:06:30;17.20;99.90
19132;DHT22;9698;51.976;7.570;2023-10-13T05:12:07;17.20;99.90
19132;DHT22;9698;51.976;7.570;2023-10-13T05:14:58;17.20;99.90
19132;DHT22;9698;51.976;7.570;2023-10-13T05:17:44;17.10;99.90
19132;DHT22;9698;51.976;7.570;2023-10-13T05:20:29;17.10;99.90
19132;DHT22;9698;51.976;7.570;2023-10-13T05:23:16;17.10;99.90
19132;DHT22;9698;51.976;7.570;2023-10-13T05:26:03;17.10;99.90
19132;DHT22;9698;51.976;7.570;2023-10-13T05:28:48;17.10;99.90
19132;DHT22;9698;51.976;7.570;2023-10-13T05:31:53;17.10;99.90
19132;DHT22;9698;51.976;7.570;2023-10-13T05:37:33;17.10;99.90
19132;DHT22;9698;51.976;7.570;2023-10-13T05:40:19;17.10;99.90
19132;DHT22;9698;51.976;7.570;2023-10-13T05:43:06;17.20;99.90
19132;DHT22;9698;51.976;7.570;2023-10-13T05:45:51;17.20;99.90
19132;DHT22;9698;51.976;7.570;2023-10-13T05:48:41;17.10;99.90
19132;DHT22;9698;51.976;7.570;2023-10-13T05:51:31;17.20;99.90
19132;DHT22;9698;51.976;7.570;2023-10-13T05:54:00;17.20;99.90
19132;DHT22;9698;51.976;7.570;2023-10-13T05:56:48;17.20;99.90
19132;DHT22;9698;51.976;7.570;2023-10-13T05:59:36;17.20;99.90
19132;DHT22;9698;51.976;7.570;2023-10-13T06:02:23;17.10;99.90
19132;DHT22;9698;51.976;7.570;2023-10-13T06:05:11;17.20;99.90
19132;DHT22;9698;51.976;7.570;2023-10-13T06:07:58;17.20;99.90
19132;DHT22;9698;51.976;7.570;2023-10-13T06:10:44;17.20;99.90
19132;DHT22;9698;51.976;7.570;2023-10-13T06:13:30;17.20;99.90
19132;DHT22;9698;51.976;7.570;2023-10-13T06:16:18;17.20;99.90
19132;DHT22;9698;51.976;7.570;2023-10-13T06:19:04;17.20;99.90
19132;DHT22;9698;51.976;7.570;2023-10-13T06:21:51;17.20;99.90
19132;DHT22;9698;51.976;7.570;2023-10-13T06:24:37;17.20;99.90
19132;DHT22;9698;51.976;7.570;2023-10-13T06:27:23;17.20;99.90
19132;DHT22;9698;51.976;7.570;2023-10-13T06:30:12;17.20;99.90
19132;DHT22;9698;51.976;7.570;2023-10-13T06:32:40;17.20;99.90
19132;DHT22;9698;51.976;7.570;2023-10-13T06:35:09;17.30;99.90
19132;DHT22;9698;51.976;7.570;2023-10-13T06:37:45;17.30;99.90
19132;DHT22;9698;51.976;7.570;2023-10-13T06:40:14;17.30;99.90
19132;DHT22;9698;51.976;7.570;2023-10-13T06:42:53;17.30;99.90
19132;DHT22;9698;51.976;7.570;2023-10-13T06:45:22;17.40;99.90
19132;DHT22;9698;51.976;7.570;2023-10-13T06:47:55;17.40;99.90
19132;DHT22;9698;51.976;7.570;2023-10-13T06:50:26;17.50;99.90
19132;DHT22;9698;51.976;7.570;2023-10-13T06:52:55;17.40;99.90
19132;DHT22;9698;51.976;7.570;2023-10-13T06:55:23;17.40;99.90
19132;DHT22;9698;51.976;7.570;2023-10-13T06:57:54;17.50;99.90
19132;DHT22;9698;51.976;7.570;2023-10-13T07:00:27;17.50;99.90
19132;DHT22;9698;51.976;7.570;2023-10-13T07:02:56;17.50;99.90
19132;DHT22;9698;51.976;7.570;2023-10-13T07:05:37;17.50;99.90
19132;DHT22;9698;51.976;7.570;2023-10-13T07:08:07;17.50;99.90
19132;DHT22;9698;51.976;7.570;2023-10-13T07:10:36;17.50;99.90
19132;DHT22;9698;51.976;7.570;2023-10-13T07:13:16;17.50;99.90
19132;DHT22;9698;51.976;7.570;2023-10-13T07:15:44;17.60;99.90
19132;DHT22;9698;51.976;7.570;2023-10-13T07:18:15;17.60;99.90
19132;DHT22;9698;51.976;7.570;2023-10-13T07:20:44;17.60;99.90
19132;DHT22;9698;51.976;7.570;2023-10-13T07:23:14;17.60;99.90
19132;DHT22;9698;51.976;7.570;2023-10-13T07:25:52;17.60;99.90
19132;DHT22;9698;51.976;7.570;2023-10-13T07:28:22;17.70;99.90
19132;DHT22;9698;51.976;7.570;2023-10-13T07:30:49;17.60;99.90
19132;DHT22;9698;51.976;7.570;2023-10-13T07:33:39;17.70;99.90
19132;DHT22;9698;51.976;7.570;2023-10-13T07:36:09;17.70;99.90
19132;DHT22;9698;51.976;7.570;2023-10-13T07:38:46;17.70;99.90
19132;DHT22;9698;51.976;7.570;2023-10-13T07:41:33;17.60;99.90
19132;DHT22;9698;51.976;7.570;2023-10-13T07:44:04;17.70;99.90
19132;DHT22;9698;51.976;7.570;2023-10-13T07:46:31;17.70;99.90
19132;DHT22;9698;51.976;7.570;2023-10-13T07:49:00;17.70;99.90
19132;DHT22;9698;51.976;7.570;2023-10-13T07:51:38;17.70;99.90
19132;DHT22;9698;51.976;7.570;2023-10-13T07:54:13;17.70;99.90
19132;DHT22;9698;51.976;7.570;2023-10-13T07:56:49;17.70;99.90
19132;DHT22;9698;51.976;7.570;2023-10-13T07:59:17;17.70;99.90
19132;DHT22;9698;51.976;7.570;2023-10-13T08:01:49;17.80;99.90
19132;DHT22;9698;51.976;7.570;2023-10-13T08:04:39;17.80;99.90
19132;DHT22;9698;51.976;7.570;2023-10-13T08:07:07;17.80;99.90
19132;DHT22;9698;51.976;7.570;2023-10-13T08:09:41;17.80;99.90
19132;DHT22;9698;51.976;7.570;2023-10-13T08:12:10;17.80;99.90
19132;DHT22;9698;51.976;7.570;2023-10-13T08:14:39;17.90;99.90
19132;DHT22;9698;51.976;7.570;2023-10-13T08:17:08;17.80;99.90
19132;DHT22;9698;51.976;7.570;2023-10-13T08:19:37;17.90;99.90
19132;DHT22;9698;51.976;7.570;2023-10-13T08:22:09;17.90;99.90
19132;DHT22;9698;51.976;7.570;2023-10-13T08:24:53;17.90;99.90
19132;DHT22;9698;51.976;7.570;2023-10-13T08:27:42;18.00;99.90
19132;DHT22;9698;51.976;7.570;2023-10-13T08:30:28;18.00;99.90
19132;DHT22;9698;51.976;7.570;2023-10-13T08:32:57;18.00;99.90
19132;DHT22;9698;51.976;7.570;2023-10-13T08:35:26;18.10;99.90
19132;DHT22;9698;51.976;7.570;2023-10-13T08:38:11;19.30;99.90
19132;DHT22;9698;51.976;7.570;2023-10-13T08:40:59;18.10;99.90
19132;DHT22;9698;51.976;7.570;2023-10-13T08:43:45;18.10;99.90
19132;DHT22;9698;51.976;7.570;2023-10-13T08:46:18;18.20;99.90
19132;DHT22;9698;51.976;7.570;2023-10-13T08:48:58;18.20;99.90
19132;DHT22;9698;51.976;7.570;2023-10-13T08:51:37;18.20;99.90
19132;DHT22;9698;51.976;7.570;2023-10-13T08:54:13;18.20;99.90
19132;DHT22;9698;51.976;7.570;2023-10-13T08:56:49;18.20;99.90
19132;DHT22;9698;51.976;7.570;2023-10-13T08:59:23;18.20;99.90
19132;DHT22;9698;51.976;7.570;2023-10-13T09:02:01;18.20;99.90
19132;DHT22;9698;51.976;7.570;2023-10-13T09:04:43;18.30;99.90
19132;DHT22;9698;51.976;7.570;2023-10-13T09:07:15;18.30;99.90
19132;DHT22;9698;51.976;7.570;2023-10-13T09:09:47;18.40;99.90
19132;DHT22;9698;51.976;7.570;2023-10-13T09:12:38;18.40;99.90
19132;DHT22;9698;51.976;7.570;2023-10-13T09:15:31;18.40;99.90
19132;DHT22;9698;51.976;7.570;2023-10-13T09:18:24;18.50;99.90
19132;DHT22;9698;51.976;7.570;2023-10-13T09:21:10;18.50;99.90
19132;DHT22;9698;51.976;7.570;2023-10-13T09:23:57;18.50;99.90
19132;DHT22;9698;51.976;7.570;2023-10-13T09:26:44;18.60;99.90
19132;DHT22;9698;51.976;7.570;2023-10-13T09:29:18;18.60;99.90
19132;DHT22;9698;51.976;7.570;2023-10-13T09:31:48;18.70;99.90
19132;DHT22;9698;51.976;7.570;2023-10-13T09:34:27;18.70;99.90
19132;DHT22;9698;51.976;7.570;2023-10-13T09:36:59;18.70;99.90
19132;DHT22;9698;51.976;7.570;2023-10-13T09:39:30;18.70;99.90
19132;DHT22;9698;51.976;7.570;2023-10-13T09:42:09;18.80;99.90
19132;DHT22;9698;51.976;7.570;2023-10-13T09:44:38;18.80;99.90
19132;DHT22;9698;51.976;7.570;2023-10-13T09:47:10;18.80;99.90
19132;DHT22;9698;51.976;7.570;2023-10-13T09:49:45;18.90;99.90
19132;DHT22;9698;51.976;7.570;2023-10-13T09:52:17;18.90;99.90
19132;DHT22;9698;51.976;7.570;2023-10-13T09:55:00;19.00;99.90
19132;DHT22;9698;51.976;7.570;2023-10-13T09:57:34;19.00;99.90
19132;DHT22;9698;51.976;7.570;2023-10-13T10:00:11;19.00;99.90
19132;DHT22;9698;51.976;7.570;2023-10-13T10:03:12;19.20;99.90
19132;DHT22;9698;51.976;7.570;2023-10-13T10:05:56;19.30;99.90
19132;DHT22;9698;51.976;7.570;2023-10-13T10:08:30;19.30;99.90
19132;DHT22;9698;51.976;7.570;2023-10-13T10:11:14;19.40;99.90
19132;DHT22;9698;51.976;7.570;2023-10-13T10:13:56;19.50;99.90
19132;DHT22;9698;51.976;7.570;2023-10-13T10:16:42;19.50;99.90
19132;DHT22;9698;51.976;7.570;2023-10-13T10:19:13;19.50;99.90
19132;DHT22;9698;51.976;7.570;2023-10-13T10:21:41;19.60;99.90
19132;DHT22;9698;51.976;7.570;2023-10-13T10:24:21;19.70;99.90
19132;DHT22;9698;51.976;7.570;2023-10-13T10:26:57;19.80;99.90
19132;DHT22;9698;51.976;7.570;2023-10-13T10:29:25;19.80;99.90
19132;DHT22;9698;51.976;7.570;2023-10-13T10:31:53;19.80;99.90
19132;DHT22;9698;51.976;7.570;2023-10-13T10:34:21;19.90;99.90
19132;DHT22;9698;51.976;7.570;2023-10-13T10:37:00;19.90;99.90
19132;DHT22;9698;51.976;7.570;2023-10-13T10:39:34;19.90;99.90
19132;DHT22;9698;51.976;7.570;2023-10-13T10:42:13;19.90;99.90
19132;DHT22;9698;51.976;7.570;2023-10-13T10:44:46;20.00;99.90
19132;DHT22;9698;51.976;7.570;2023-10-13T10:47:16;20.00;99.90
19132;DHT22;9698;51.976;7.570;2023-10-13T10:49:58;20.00;99.90
19132;DHT22;9698;51.976;7.570;2023-10-13T10:52:28;20.00;99.90
19132;DHT22;9698;51.976;7.570;2023-10-13T10:55:06;20.10;99.90
19132;DHT22;9698;51.976;7.570;2023-10-13T10:57:34;20.10;99.90
19132;DHT22;9698;51.976;7.570;2023-10-13T11:00:07;20.10;99.90
19132;DHT22;9698;51.976;7.570;2023-10-13T11:02:54;20.20;99.90
19132;DHT22;9698;51.976;7.570;2023-10-13T11:05:22;20.30;99.90
19132;DHT22;9698;51.976;7.570;2023-10-13T11:07:51;20.30;99.90
19132;DHT22;9698;51.976;7.570;2023-10-13T11:10:20;20.30;99.90
19132;DHT22;9698;51.976;7.570;2023-10-13T11:12:55;20.30;99.90
19132;DHT22;9698;51.976;7.570;2023-10-13T11:15:23;20.40;99.90
19132;DHT22;9698;51.976;7.570;2023-10-13T11:18:01;20.40;99.90
19132;DHT22;9698;51.976;7.570;2023-10-13T11:20:33;20.40;99.90
19132;DHT22;9698;51.976;7.570;2023-10-13T11:23:01;20.40;99.90
19132;DHT22;9698;51.976;7.570;2023-10-13T11:25:32;20.50;99.90
19132;DHT22;9698;51.976;7.570;2023-10-13T11:28:12;20.50;99.90
19132;DHT22;9698;51.976;7.570;2023-10-13T11:30:45;20.60;99.90
19132;DHT22;9698;51.976;7.570;2023-10-13T11:33:17;20.60;99.90
19132;DHT22;9698;51.976;7.570;2023-10-13T11:35:46;20.70;99.90
19132;DHT22;9698;51.976;7.570;2023-10-13T11:38:23;20.70;99.90
19132;DHT22;9698;51.976;7.570;2023-10-13T11:40:56;20.70;99.90
19132;DHT22;9698;51.976;7.570;2023-10-13T11:43:40;20.70;99.90
19132;DHT22;9698;51.976;7.570;2023-10-13T11:46:34;20.70;99.90
19132;DHT22;9698;51.976;7.570;2023-10-13T11:49:20;20.70;99.90
19132;DHT22;9698;51.976;7.570;2023-10-13T11:51:59;20.70;99.90
19132;DHT22;9698;51.976;7.570;2023-10-13T11:54:44;20.70;99.90
19132;DHT22;9698;51.976;7.570;2023-10-13T11:57:14;20.80;99.90
19132;DHT22;9698;51.976;7.570;2023-10-13T11:59:46;20.80;99.90
19132;DHT22;9698;51.976;7.570;2023-10-13T12:02:21;20.80;99.90
19132;DHT22;9698;51.976;7.570;2023-10-13T12:05:07;20.90;99.90
19132;DHT22;9698;51.976;7.570;2023-10-13T12:07:44;20.90;99.90
19132;DHT22;9698;51.976;7.570;2023-10-13T12:10:16;20.90;99.90
19132;DHT22;9698;51.976;7.570;2023-10-13T12:13:01;20.90;99.90
19132;DHT22;9698;51.976;7.570;2023-10-13T12:15:37;20.90;99.90
19132;DHT22;9698;51.976;7.570;2023-10-13T12:18:16;20.90;99.90
19132;DHT22;9698;51.976;7.570;2023-10-13T12:20:46;20.90;99.90
19132;DHT22;9698;51.976;7.570;2023-10-13T12:23:14;20.90;99.90
19132;DHT22;9698;51.976;7.570;2023-10-13T12:25:44;20.90;99.90
19132;DHT22;9698;51.976;7.570;2023-10-13T12:28:23;20.90;99.90
19132;DHT22;9698;51.976;7.570;2023-10-13T12:30:55;21.00;99.90
19132;DHT22;9698;51.976;7.570;2023-10-13T12:33:26;21.10;99.90
19132;DHT22;9698;51.976;7.570;2023-10-13T12:36:04;21.10;99.90
19132;DHT22;9698;51.976;7.570;2023-10-13T12:38:37;21.50;99.90
19132;DHT22;9698;51.976;7.570;2023-10-13T12:41:28;21.40;99.90
19132;DHT22;9698;51.976;7.570;2023-10-13T12:44:14;21.60;99.90
19132;DHT22;9698;51.976;7.570;2023-10-13T12:46:59;21.60;99.90
19132;DHT22;9698;51.976;7.570;2023-10-13T12:49:45;21.70;99.90
19132;DHT22;9698;51.976;7.570;2023-10-13T12:52:26;21.70;99.90
19132;DHT22;9698;51.976;7.570;2023-10-13T12:54:54;21.70;99.90
19132;DHT22;9698;51.976;7.570;2023-10-13T12:57:29;21.80;99.90
19132;DHT22;9698;51.976;7.570;2023-10-13T12:59:57;21.70;99.90
19132;DHT22;9698;51.976;7.570;2023-10-13T13:02:26;21.80;99.90
19132;DHT22;9698;51.976;7.570;2023-10-13T13:04:56;21.80;99.90
19132;DHT22;9698;51.976;7.570;2023-10-13T13:07:30;21.80;99.90
19132;DHT22;9698;51.976;7.570;2023-10-13T13:09:58;22.00;99.90
19132;DHT22;9698;51.976;7.570;2023-10-13T13:12:27;22.20;99.90
19132;DHT22;9698;51.976;7.570;2023-10-13T13:14:56;22.30;99.90
19132;DHT22;9698;51.976;7.570;2023-10-13T13:17:24;22.30;99.90
19132;DHT22;9698;51.976;7.570;2023-10-13T13:19:52;22.30;99.90
19132;DHT22;9698;51.976;7.570;2023-10-13T13:22:21;22.30;99.90
19132;DHT22;9698;51.976;7.570;2023-10-13T13:24:48;22.20;99.90
19132;DHT22;9698;51.976;7.570;2023-10-13T13:27:17;22.20;99.90
19132;DHT22;9698;51.976;7.570;2023-10-13T13:29:46;22.20;99.90
19132;DHT22;9698;51.976;7.570;2023-10-13T13:32:14;22.20;99.90
19132;DHT22;9698;51.976;7.570;2023-10-13T13:34:46;22.40;99.90
19132;DHT22;9698;51.976;7.570;2023-10-13T13:37:22;22.40;99.90
19132;DHT22;9698;51.976;7.570;2023-10-13T13:39:50;22.60;99.90
19132;DHT22;9698;51.976;7.570;2023-10-13T13:42:20;22.80;99.90
19132;DHT22;9698;51.976;7.570;2023-10-13T13:44:47;22.80;99.90
19132;DHT22;9698;51.976;7.570;2023-10-13T13:47:15;22.90;99.90
19132;DHT22;9698;51.976;7.570;2023-10-13T13:49:44;22.80;99.90
19132;DHT22;9698;51.976;7.570;2023-10-13T13:52:18;22.70;99.90
19132;DHT22;9698;51.976;7.570;2023-10-13T13:54:49;22.60;99.90
19132;DHT22;9698;51.976;7.570;2023-10-13T13:57:16;22.50;99.90
19132;DHT22;9698;51.976;7.570;2023-10-13T13:59:44;22.50;99.90
19132;DHT22;9698;51.976;7.570;2023-10-13T14:02:12;22.40;99.90
19132;DHT22;9698;51.976;7.570;2023-10-13T14:04:47;22.40;99.90
19132;DHT22;9698;51.976;7.570;2023-10-13T14:07:18;22.30;99.90
19132;DHT22;9698;51.976;7.570;2023-10-13T14:09:47;22.30;99.90
19132;DHT22;9698;51.976;7.570;2023-10-13T14:12:19;22.40;99.90
19132;DHT22;9698;51.976;7.570;2023-10-13T14:15:10;22.30;99.90
19132;DHT22;9698;51.976;7.570;2023-10-13T14:17:47;22.30;99.90
19132;DHT22;9698;51.976;7.570;2023-10-13T14:20:16;22.30;99.90
19132;DHT22;9698;51.976;7.570;2023-10-13T14:22:45;22.30;99.90
19132;DHT22;9698;51.976;7.570;2023-10-13T14:25:16;22.30;99.90
19132;DHT22;9698;51.976;7.570;2023-10-13T14:27:45;22.30;99.90
19132;DHT22;9698;51.976;7.570;2023-10-13T14:30:14;22.20;99.90
19132;DHT22;9698;51.976;7.570;2023-10-13T14:32:46;22.20;99.90
19132;DHT22;9698;51.976;7.570;2023-10-13T14:35:15;22.20;99.90
19132;DHT22;9698;51.976;7.570;2023-10-13T14:37:42;22.10;99.90
19132;DHT22;9698;51.976;7.570;2023-10-13T14:40:12;22.10;99.90
19132;DHT22;9698;51.976;7.570;2023-10-13T14:42:42;22.10;99.90
19132;DHT22;9698;51.976;7.570;2023-10-13T14:45:10;22.10;99.90
19132;DHT22;9698;51.976;7.570;2023-10-13T14:47:40;22.10;99.90
19132;DHT22;9698;51.976;7.570;2023-10-13T14:50:10;22.10;99.90
19132;DHT22;9698;51.976;7.570;2023-10-13T14:52:47;22.10;99.90
19132;DHT22;9698;51.976;7.570;2023-10-13T14:55:15;22.00;99.90
19132;DHT22;9698;51.976;7.570;2023-10-13T14:58:00;22.00;99.90
19132;DHT22;9698;51.976;7.570;2023-10-13T15:00:31;22.00;99.90
19132;DHT22;9698;51.976;7.570;2023-10-13T15:03:00;21.90;99.90
19132;DHT22;9698;51.976;7.570;2023-10-13T15:05:28;21.90;99.90
19132;DHT22;9698;51.976;7.570;2023-10-13T15:07:57;21.90;99.90
19132;DHT22;9698;51.976;7.570;2023-10-13T15:10:26;21.90;99.90
19132;DHT22;9698;51.976;7.570;2023-10-13T15:12:54;21.80;99.90
19132;DHT22;9698;51.976;7.570;2023-10-13T15:15:21;21.80;99.90
19132;DHT22;9698;51.976;7.570;2023-10-13T15:17:50;21.80;99.90
19132;DHT22;9698;51.976;7.570;2023-10-13T15:20:20;21.70;99.90
19132;DHT22;9698;51.976;7.570;2023-10-13T15:22:48;21.70;99.90
19132;DHT22;9698;51.976;7.570;2023-10-13T15:25:16;21.70;99.90
19132;DHT22;9698;51.976;7.570;2023-10-13T15:30:23;21.70;99.90
19132;DHT22;9698;51.976;7.570;2023-10-13T15:32:53;21.60;99.90
19132;DHT22;9698;51.976;7.570;2023-10-13T15:35:25;21.60;99.90
19132;DHT22;9698;51.976;7.570;2023-10-13T15:37:56;21.70;99.90
19132;DHT22;9698;51.976;7.570;2023-10-13T15:40:23;21.60;99.90
19132;DHT22;9698;51.976;7.570;2023-10-13T15:42:55;21.60;99.90
19132;DHT22;9698;51.976;7.570;2023-10-13T15:45:26;21.60;99.90
19132;DHT22;9698;51.976;7.570;2023-10-13T15:48:09;21.60;99.90
19132;DHT22;9698;51.976;7.570;2023-10-13T15:50:42;21.60;99.90
19132;DHT22;9698;51.976;7.570;2023-10-13T15:53:10;21.40;99.90
19132;DHT22;9698;51.976;7.570;2023-10-13T15:55:40;21.50;99.90
19132;DHT22;9698;51.976;7.570;2023-10-13T15:58:07;21.50;99.90
19132;DHT22;9698;51.976;7.570;2023-10-13T16:00:36;21.50;99.90
19132;DHT22;9698;51.976;7.570;2023-10-13T16:03:05;21.50;99.90
19132;DHT22;9698;51.976;7.570;2023-10-13T16:05:38;21.60;99.90
19132;DHT22;9698;51.976;7.570;2023-10-13T16:08:09;21.60;99.90
19132;DHT22;9698;51.976;7.570;2023-10-13T16:10:40;21.50;99.90
19132;DHT22;9698;51.976;7.570;2023-10-13T16:13:08;21.50;99.90
19132;DHT22;9698;51.976;7.570;2023-10-13T16:15:42;21.50;99.90
19132;DHT22;9698;51.976;7.570;2023-10-13T16:18:11;21.50;99.90
19132;DHT22;9698;51.976;7.570;2023-10-13T16:20:39;21.50;99.90
19132;DHT22;9698;51.976;7.570;2023-10-13T16:23:07;21.40;99.90
19132;DHT22;9698;51.976;7.570;2023-10-13T16:25:36;21.40;99.90
19132;DHT22;9698;51.976;7.570;2023-10-13T16:28:06;21.40;99.90
19132;DHT22;9698;51.976;7.570;2023-10-13T16:30:34;21.40;99.90
19132;DHT22;9698;51.976;7.570;2023-10-13T16:33:06;21.40;99.90
19132;DHT22;9698;51.976;7.570;2023-10-13T16:35:34;21.30;99.90
19132;DHT22;9698;51.976;7.570;2023-10-13T16:38:03;21.30;99.90
19132;DHT22;9698;51.976;7.570;2023-10-13T16:40:33;21.30;99.90
19132;DHT22;9698;51.976;7.570;2023-10-13T16:43:01;21.30;99.90